Accueil
METAR-TAF:

METAR-TAF

Aéroports :

Aéroport international de Guilin Liangjiang

Guilin, Chine

latitude: 25-20N, longitude: 110-18E, altitude: 166 m

Observation

Le bulletin a été fait il y a 44 minutes, à 01:00 UTC
Vent 8 kt de nord-est, variant entre nord et est/nord-est
Température 8°C
Humidité 71%
Pression 1024 hPa
Visibilité: 7000 m
Quelques nuages à une hauteur de 2000 ft
Nuages épars à une hauteur de 6000 ft

METAR: ZGKL 220100Z 04004MPS 010V070 7000 FEW020 SCT060 08/03 Q1024 NOSIG

Heure: 09:44 (01:44 UTC)

Prévision

Le bulletin a été fait il y a 6 heures et 34 minutes, à 19:10 UTC
Prévision valable du 22 à 00 UTC au 22 à 24 UTC
Vent 6 kt de nord-est
Visibilité: 6000 m
Nuages épars à une hauteur de 2000 ft
Ciel couvert à une hauteur de 4000 ft

TAF: ZGKL 211910Z 2200/2224 05003MPS 6000 SCT020 OVC040 TX12/2207Z TN05/2222Z

Observations et prévisions météorologiques de plus de 4000 aéroports (messages METAR et TAF).

Les stations disponibles sont représentées par des disques jaunes et rouges sur la carte.

Passer la souris dessus pour voir le nom de la station.

Cliquer dessus pour voir les observations et prévisions météorologiques.

Pour changer de carte: cliquez sur les boutons verts avec une croix noire pour zoomer, sur le bouton vert avec un tiret pour effectuer un zoom arrière, ou sur les flèches vertes pour les cartes adjacentes.


METAR-TAF: